Time;durP1;ratioP1;P1;durP2;ratioP2;P2;SDS_P1;SDS_P2;PMS_P1;PMS_P2;Temp;Humidity;BMP_temperature;BMP_pressure;BME280_temperature;BME280_humidity;BME280_pressure;Samples;Min_cycle;Max_cycle;Signal;HPM_P1;HPM_P2
2022/09/26 00:02:21;;;;;;;49.25;33.35;;;;;;;8.58;100.00;98361.57;4550971;76;21785;-82
2022/09/26 00:08:23;;;;;;;47.20;32.73;;;;;;;8.61;100.00;98363.58;4543988;76;21038;-81
2022/09/26 00:14:27;;;;;;;48.13;33.25;;;;;;;8.64;100.00;98361.45;4560119;76;20992;-82
2022/09/26 00:20:29;;;;;;;45.12;31.73;;;;;;;8.66;100.00;98353.66;4529584;76;21034;-81
2022/09/26 00:26:33;;;;;;;45.58;31.95;;;;;;;8.66;100.00;98345.47;4561928;76;21491;-82
2022/09/26 00:32:34;;;;;;;49.77;33.83;;;;;;;8.62;100.00;98333.75;4559039;76;20978;-81
2022/09/26 00:38:36;;;;;;;47.50;33.55;;;;;;;8.57;100.00;98318.30;4549204;76;21013;-81
2022/09/26 00:44:46;;;;;;;51.77;35.35;;;;;;;8.55;100.00;98317.91;4575519;76;20971;-82
2022/09/26 00:50:48;;;;;;;46.28;30.68;;;;;;;8.53;100.00;98307.38;4533227;76;21057;-82
2022/09/26 00:56:52;;;;;;;50.03;33.73;;;;;;;8.48;100.00;98312.38;4568991;76;20987;-81
2022/09/26 01:02:54;;;;;;;50.12;31.80;;;;;;;8.43;100.00;98314.88;4565641;76;21070;-82
2022/09/26 01:09:00;;;;;;;47.43;32.63;;;;;;;8.47;100.00;98303.41;4555786;76;21003;-82
2022/09/26 01:15:06;;;;;;;;;;;;;;;8.48;100.00;98305.00;4448030;78;21026;-82
2022/09/26 01:21:46;;;;;;;55.80;29.35;;;;;;;8.54;100.00;98301.33;4439390;77;20614;-83
2022/09/26 01:28:02;;;;;;;70.15;29.90;;;;;;;8.51;100.00;98308.91;4451719;78;21585;-81
2022/09/26 01:34:25;;;;;;;49.93;30.70;;;;;;;8.39;100.00;98301.02;4396379;79;21092;-82
2022/09/26 01:41:00;;;;;;;54.95;32.30;;;;;;;8.34;100.00;98293.17;4373107;79;20998;-81
2022/09/26 01:47:26;;;;;;;56.60;33.73;;;;;;;8.37;100.00;98286.39;4393002;79;21957;-81
2022/09/26 01:53:45;;;;;;;50.05;32.67;;;;;;;8.31;100.00;98278.94;4575130;78;20982;-81
2022/09/26 01:59:52;;;;;;;50.28;34.08;;;;;;;8.33;100.00;98276.63;4310256;79;20989;-82
2022/09/26 02:06:08;;;;;;;45.15;29.67;;;;;;;8.33;100.00;98265.11;4414489;79;20996;-81
2022/09/26 02:12:15;;;;;;;57.78;34.95;;;;;;;8.37;100.00;98261.06;4388103;79;20976;-82
2022/09/26 02:18:27;;;;;;;65.50;38.30;;;;;;;8.30;100.00;98254.96;4388300;79;21000;-82
2022/09/26 02:24:28;;;;;;;56.73;36.35;;;;;;;8.23;100.00;98256.28;4390438;79;21050;-82
2022/09/26 02:30:30;;;;;;;64.42;39.10;;;;;;;8.31;100.00;98262.00;4474602;77;21495;-82
2022/09/26 02:36:34;;;;;;;61.63;39.20;;;;;;;8.44;100.00;98259.16;4397779;78;20993;-82
2022/09/26 02:42:51;;;;;;;58.17;37.33;;;;;;;8.50;100.00;98252.22;4365313;80;20984;-82
2022/09/26 02:49:18;;;;;;;49.83;33.13;;;;;;;8.52;100.00;98246.39;4585516;76;20962;-81
2022/09/26 02:55:25;;;;;;;46.68;31.87;;;;;;;8.60;100.00;98232.97;4544145;76;21373;-81
2022/09/26 03:01:44;;;;;;;46.37;31.05;;;;;;;8.63;100.00;98223.45;4532520;76;20952;-82
2022/09/26 03:07:53;;;;;;;46.65;29.32;;;;;;;8.59;100.00;98225.39;4550168;76;21070;-81
2022/09/26 03:13:56;;;;;;;47.58;32.48;;;;;;;8.47;100.00;98220.22;4542562;76;21369;-82
2022/09/26 03:20:04;;;;;;;46.25;32.55;;;;;;;8.44;100.00;98202.48;4528389;76;21017;-81
2022/09/26 03:26:11;;;;;;;40.05;28.00;;;;;;;8.43;100.00;98190.78;4543201;76;21059;-82
2022/09/26 03:32:14;;;;;;;39.63;28.90;;;;;;;8.49;100.00;98189.86;4560004;76;20987;-82
2022/09/26 03:38:16;;;;;;;37.58;26.50;;;;;;;8.53;100.00;98190.66;4561596;76;21579;-82
2022/09/26 03:44:20;;;;;;;41.45;29.07;;;;;;;8.51;100.00;98179.34;4562069;76;21043;-82
2022/09/26 03:50:40;;;;;;;41.83;27.00;;;;;;;8.56;100.00;98180.34;4558851;76;21042;-83
2022/09/26 03:56:42;;;;;;;39.35;27.62;;;;;;;8.55;100.00;98172.73;4545196;76;20988;-82
2022/09/26 04:02:43;;;;;;;40.98;27.70;;;;;;;8.63;100.00;98185.25;4528788;76;20984;-82
2022/09/26 04:08:50;;;;;;;37.95;28.17;;;;;;;8.63;100.00;98183.89;4541753;76;20963;-82
2022/09/26 04:14:53;;;;;;;36.83;26.23;;;;;;;8.64;100.00;98189.57;4563356;76;21031;-81
2022/09/26 04:21:00;;;;;;;51.33;31.80;;;;;;;8.56;100.00;98186.59;4543254;76;20999;-82
2022/09/26 04:27:02;;;;;;;39.03;27.10;;;;;;;8.55;100.00;98176.83;4551396;76;21006;-82
2022/09/26 04:33:06;;;;;;;41.90;29.15;;;;;;;8.63;100.00;98172.98;4528270;76;21025;-82
2022/09/26 04:39:11;;;;;;;47.15;31.07;;;;;;;8.63;100.00;98175.70;4537154;76;21081;-82
2022/09/26 04:45:12;;;;;;;40.40;29.12;;;;;;;8.65;100.00;98169.30;4519704;76;20982;-82
2022/09/26 04:51:15;;;;;;;45.90;30.45;;;;;;;8.70;100.00;98164.84;4474321;78;20999;-82
2022/09/26 04:57:19;;;;;;;54.38;30.85;;;;;;;8.81;100.00;98161.59;4471692;77;20939;-81
2022/09/26 05:03:21;;;;;;;47.05;32.03;;;;;;;8.84;100.00;98154.00;4488806;76;22288;-81
2022/09/26 05:09:23;;;;;;;46.48;31.65;;;;;;;8.91;100.00;98151.28;4480253;78;21022;-83
2022/09/26 05:15:26;;;;;;;49.58;33.25;;;;;;;8.91;100.00;98145.83;4480694;78;21037;-82
2022/09/26 05:21:27;;;;;;;47.25;32.65;;;;;;;8.97;100.00;98137.46;4483722;77;21564;-82
2022/09/26 05:27:29;;;;;;;45.03;30.82;;;;;;;9.04;100.00;98132.05;4417837;78;21014;-81
2022/09/26 05:33:32;;;;;;;46.85;30.25;;;;;;;9.13;100.00;98128.96;4421915;78;22700;-82
2022/09/26 05:46:04;;;;;;;47.98;30.88;;;;;;;9.25;100.00;98140.31;4400279;79;20988;-82
2022/09/26 05:52:07;;;;;;;50.70;29.85;;;;;;;9.31;100.00;98138.76;4415101;79;21007;-82
2022/09/26 05:58:09;;;;;;;44.33;30.60;;;;;;;9.36;100.00;98134.26;4423793;79;21154;-81
2022/09/26 06:04:28;;;;;;;42.80;30.10;;;;;;;9.44;100.00;98137.81;4423219;79;21750;-82
2022/09/26 06:10:32;;;;;;;49.55;31.82;;;;;;;9.48;100.00;98142.11;4337551;79;20976;-82
2022/09/26 06:16:35;;;;;;;42.67;30.77;;;;;;;9.55;100.00;98132.55;4316701;80;21092;-82
2022/09/26 06:22:41;;;;;;;48.25;31.70;;;;;;;9.60;100.00;98138.20;4444676;78;21045;-83
2022/09/26 06:28:43;;;;;;;47.98;29.80;;;;;;;9.65;100.00;98126.89;4414422;79;21043;-81
2022/09/26 06:34:45;;;;;;;43.92;29.57;;;;;;;9.73;100.00;98126.31;4418661;79;21516;-82
2022/09/26 06:40:51;;;;;;;56.23;38.90;;;;;;;9.86;100.00;98126.92;4427965;79;21322;-82
2022/09/26 06:46:55;;;;;;;44.33;32.65;;;;;;;9.98;100.00;98131.98;4408005;79;21591;-83
2022/09/26 06:53:03;;;;;;;44.55;33.08;;;;;;;10.03;100.00;98131.59;4395699;79;21068;-83
2022/09/26 06:59:05;;;;;;;40.67;31.68;;;;;;;10.15;100.00;98131.22;4417893;79;21063;-82
2022/09/26 07:05:09;;;;;;;42.45;29.42;;;;;;;10.24;100.00;98123.38;4421194;79;22006;-83
2022/09/26 07:11:14;;;;;;;43.48;29.20;;;;;;;10.30;100.00;98119.67;4425155;79;20987;-84
2022/09/26 07:17:17;;;;;;;42.55;30.92;;;;;;;10.39;100.00;98113.20;4419205;78;21042;-84
2022/09/26 07:23:23;;;;;;;42.58;29.60;;;;;;;10.54;100.00;98114.75;4412254;79;21065;-83
2022/09/26 07:29:24;;;;;;;42.88;31.20;;;;;;;10.75;100.00;98120.92;4415739;79;21052;-82
2022/09/26 07:35:27;;;;;;;51.25;35.40;;;;;;;10.94;100.00;98118.31;4428198;78;21449;-82
2022/09/26 07:41:29;;;;;;;50.50;37.05;;;;;;;11.08;100.00;98116.88;4393286;78;21011;-83
2022/09/26 07:54:09;;;;;;;55.90;37.40;;;;;;;11.31;100.00;98111.65;4282096;79;21596;-84
2022/09/26 08:00:16;;;;;;;49.18;35.78;;;;;;;11.44;100.00;98114.70;4319196;79;20988;-85
2022/09/26 08:06:35;;;;;;;49.60;36.57;;;;;;;11.52;100.00;98108.00;4352064;79;21019;-84
2022/09/26 08:12:38;;;;;;;51.63;36.98;;;;;;;11.55;100.00;98111.31;4323936;81;21042;-84
2022/09/26 08:18:57;;;;;;;49.53;36.50;;;;;;;11.61;100.00;98106.38;4362940;77;21578;-84
2022/09/26 08:25:05;;;;;;;50.75;35.83;;;;;;;11.63;100.00;98104.05;4399122;77;21442;-83
2022/09/26 08:31:09;;;;;;;55.12;37.78;;;;;;;11.65;100.00;98111.25;4421612;77;21044;-84
2022/09/26 08:37:13;;;;;;;49.35;36.20;;;;;;;11.65;100.00;98113.23;4403981;77;21083;-84
2022/09/26 08:43:58;;;;;;;50.17;36.45;;;;;;;11.67;100.00;98114.38;4382387;79;21046;-84
2022/09/26 08:50:51;;;;;;;50.88;35.35;;;;;;;11.70;100.00;98111.45;4397380;79;21011;-84
2022/09/26 08:57:07;;;;;;;56.40;37.88;;;;;;;11.72;100.00;98115.33;4400231;79;20975;-86
2022/09/26 09:04:02;;;;;;;52.65;36.77;;;;;;;11.74;100.00;98117.66;4374727;79;21042;-84
2022/09/26 09:31:56;;;;;;;60.35;39.27;;;;;;;11.73;100.00;98118.86;4278440;81;21019;-82
2022/09/26 09:38:07;;;;;;;60.28;40.50;;;;;;;11.72;100.00;98119.44;4299528;80;21142;-84
2022/09/26 09:45:07;;;;;;;67.47;40.15;;;;;;;11.78;100.00;98121.15;4345966;80;21679;-84
2022/09/26 09:51:48;;;;;;;61.53;42.07;;;;;;;11.82;100.00;98121.92;4319871;80;20980;-83
2022/09/26 09:58:30;;;;;;;58.90;41.65;;;;;;;11.90;100.00;98124.19;4217969;82;21006;-83
2022/09/26 10:04:48;;;;;;;61.70;44.38;;;;;;;11.96;100.00;98121.80;4072844;85;21041;-84
2022/09/26 10:11:22;;;;;;;71.15;49.95;;;;;;;12.00;100.00;98119.22;4129167;86;21064;-84
2022/09/26 10:17:31;;;;;;;84.22;55.10;;;;;;;12.03;100.00;98110.75;4236946;83;20987;-83
2022/09/26 10:23:54;;;;;;;76.60;51.42;;;;;;;12.10;100.00;98108.75;4209590;83;21075;-83
2022/09/26 10:30:32;;;;;;;72.10;50.60;;;;;;;12.18;100.00;98115.70;4444713;79;21075;-84
2022/09/26 10:36:47;;;;;;;63.90;47.78;;;;;;;12.26;100.00;98105.47;4431908;79;21417;-84
2022/09/26 10:42:51;;;;;;;64.12;45.85;;;;;;;12.36;100.00;98095.75;4441423;78;21926;-85
2022/09/26 10:49:00;;;;;;;64.37;45.33;;;;;;;12.38;100.00;98093.97;4443983;78;21056;-85
2022/09/26 10:55:11;;;;;;;58.52;41.75;;;;;;;12.40;100.00;98082.75;4445699;77;20984;-84
2022/09/26 11:01:22;;;;;;;64.58;43.42;;;;;;;12.51;100.00;98081.29;4443572;78;21043;-84
2022/09/26 11:07:33;;;;;;;84.00;53.68;;;;;;;12.73;100.00;98086.72;4449047;78;21031;-84
2022/09/26 11:14:03;;;;;;;54.70;38.70;;;;;;;13.02;100.00;98073.42;4436688;78;21462;-84
2022/09/26 11:20:10;;;;;;;36.28;26.45;;;;;;;13.29;100.00;98066.77;4442560;78;21002;-84
2022/09/26 11:26:20;;;;;;;17.50;13.05;;;;;;;13.73;100.00;98060.20;4445190;78;21011;-84
2022/09/26 11:32:39;;;;;;;14.03;10.65;;;;;;;14.07;100.00;98058.05;4444155;78;21060;-84
2022/09/26 11:39:32;;;;;;;14.93;10.70;;;;;;;14.11;100.00;98048.52;4313999;80;21551;-84
2022/09/26 11:45:46;;;;;;;10.48;9.25;;;;;;;14.12;100.00;98034.96;4285372;80;55058;-81
2022/09/26 11:52:33;;;;;;;12.20;7.92;;;;;;;14.33;100.00;98021.41;4192684;82;21071;-84
2022/09/26 11:58:52;;;;;;;10.72;8.33;;;;;;;14.31;100.00;98014.78;4216122;82;21007;-83
2022/09/26 12:05:35;;;;;;;9.23;7.97;;;;;;;14.42;100.00;98016.14;4257949;82;21024;-83
2022/09/26 12:11:56;;;;;;;7.20;6.40;;;;;;;14.57;100.00;98018.77;4274454;82;21070;-83
2022/09/26 12:18:20;;;;;;;7.53;5.80;;;;;;;14.62;100.00;98021.03;4236304;81;21075;-82
2022/09/26 12:24:32;;;;;;;8.60;7.05;;;;;;;14.62;100.00;98013.36;4248179;81;21103;-83
2022/09/26 12:30:47;;;;;;;8.83;6.30;;;;;;;14.68;100.00;98015.20;4287787;81;21089;-83
2022/09/26 12:37:14;;;;;;;9.03;7.20;;;;;;;14.79;100.00;98010.84;4284248;80;22093;-82
2022/09/26 12:43:50;;;;;;;9.53;8.27;;;;;;;14.90;100.00;98014.14;4231470;82;21033;-83
2022/09/26 12:50:28;;;;;;;7.62;6.60;;;;;;;15.00;100.00;98014.52;4220259;82;21017;-83
2022/09/26 12:56:43;;;;;;;10.98;8.10;;;;;;;15.00;100.00;98011.77;4141730;84;21073;-83
2022/09/26 13:02:59;;;;;;;8.70;7.80;;;;;;;15.04;100.00;98009.11;4148129;83;21458;-82
2022/09/26 13:09:12;;;;;;;8.48;6.80;;;;;;;14.97;100.00;98009.25;4177186;83;21398;-82
2022/09/26 13:16:02;;;;;;;9.25;7.45;;;;;;;15.08;100.00;98011.17;4177145;83;21070;-83
2022/09/26 13:22:26;;;;;;;11.90;6.28;;;;;;;15.08;100.00;98009.80;4225181;82;21066;-83
2022/09/26 13:28:54;;;;;;;8.28;6.45;;;;;;;15.01;100.00;98001.70;4145891;84;21703;-82
2022/09/26 13:35:15;;;;;;;8.50;6.37;;;;;;;14.92;100.00;97992.45;4147596;83;21090;-82
2022/09/26 13:41:45;;;;;;;8.13;6.72;;;;;;;14.89;100.00;97990.56;4206058;82;22585;-82
2022/09/26 13:48:10;;;;;;;9.58;6.35;;;;;;;14.92;100.00;97983.59;4286745;81;21034;-82
2022/09/26 13:54:27;;;;;;;10.23;6.92;;;;;;;14.92;100.00;97978.09;4258851;82;21117;-82
2022/09/26 14:00:39;;;;;;;10.70;6.50;;;;;;;15.03;100.00;97970.95;4296653;81;21561;-83
2022/09/26 14:06:37;;;;;;;11.43;6.75;;;;;;;15.06;100.00;97963.98;4290985;81;21046;-83
2022/09/26 14:12:58;;;;;;;9.38;6.70;;;;;;;14.94;100.00;97955.61;4292042;81;21441;-83
2022/09/26 14:19:08;;;;;;;6.50;5.78;;;;;;;14.86;100.00;97948.70;4290336;81;20979;-82
2022/09/26 14:25:46;;;;;;;8.23;6.85;;;;;;;14.72;100.00;97953.91;4292854;81;21042;-82
2022/09/26 14:32:00;;;;;;;9.73;6.70;;;;;;;14.70;100.00;97956.34;4283099;82;21003;-82
2022/09/26 14:38:10;;;;;;;10.32;7.30;;;;;;;14.70;100.00;97949.45;4234713;81;30823;-81
2022/09/26 14:44:18;;;;;;;11.00;7.95;;;;;;;14.69;100.00;97946.50;4132039;84;21027;-81
2022/09/26 14:50:48;;;;;;;11.12;8.15;;;;;;;14.75;100.00;97942.66;4142914;84;21039;-82
2022/09/26 14:57:07;;;;;;;10.28;7.70;;;;;;;14.82;100.00;97948.00;4147704;84;21527;-82
2022/09/26 15:03:15;;;;;;;8.75;6.90;;;;;;;14.91;100.00;97945.45;4147554;84;21534;-83
2022/09/26 15:09:25;;;;;;;8.35;5.60;;;;;;;14.95;100.00;97948.30;4143820;84;21102;-82
2022/09/26 15:16:15;;;;;;;7.72;6.03;;;;;;;14.97;100.00;97951.37;4143526;84;21003;-81
2022/09/26 15:22:22;;;;;;;9.43;6.30;;;;;;;14.93;100.00;97942.42;4135467;84;21007;-83
2022/09/26 15:28:24;;;;;;;11.17;5.63;;;;;;;14.80;100.00;97938.78;4141314;84;21443;-82
2022/09/26 15:34:35;;;;;;;8.93;6.03;;;;;;;14.66;100.00;97936.96;4133837;84;21019;-81
2022/09/26 15:40:37;;;;;;;8.93;6.35;;;;;;;14.33;100.00;97940.81;4141318;84;21020;-82
2022/09/26 15:46:38;;;;;;;12.80;9.58;;;;;;;14.29;100.00;97941.47;4133927;84;20999;-83
2022/09/26 15:52:48;;;;;;;9.80;8.38;;;;;;;14.28;100.00;97946.81;4145598;84;21494;-82
2022/09/26 15:59:23;;;;;;;29.77;19.07;;;;;;;14.19;100.00;97939.86;3969113;88;21430;-82
2022/09/26 16:05:25;;;;;;;12.10;7.40;;;;;;;14.08;100.00;97937.91;4042257;87;21679;-82
2022/09/26 16:11:27;;;;;;;9.83;5.95;;;;;;;13.96;100.00;97935.02;4071667;85;22165;-82
2022/09/26 16:17:37;;;;;;;11.45;7.75;;;;;;;13.81;100.00;97928.23;4041730;85;21039;-82
2022/09/26 16:23:49;;;;;;;14.45;9.33;;;;;;;13.65;100.00;97927.55;4095253;85;21035;-82
2022/09/26 16:29:51;;;;;;;16.15;11.35;;;;;;;13.54;100.00;97933.83;4072703;85;21661;-83
2022/09/26 16:35:53;;;;;;;14.73;10.08;;;;;;;13.48;100.00;97933.35;4054285;85;21602;-83
2022/09/26 16:42:04;;;;;;;18.95;12.07;;;;;;;13.45;100.00;97947.94;4155764;83;21035;-83
2022/09/26 16:55:23;;;;;;;23.27;13.20;;;;;;;13.23;100.00;97944.77;4118938;86;21049;-85
2022/09/26 17:07:48;;;;;;;41.10;23.07;;;;;;;13.17;100.00;97928.55;4059067;86;21174;-85
2022/09/26 17:13:52;;;;;;;39.15;21.77;;;;;;;13.17;100.00;97928.55;4058987;86;21507;-85
2022/09/26 17:19:54;;;;;;;39.63;23.07;;;;;;;13.10;100.00;97921.02;4037871;87;21594;-85
2022/09/26 17:25:55;;;;;;;21.97;14.20;;;;;;;13.03;100.00;97919.78;4071919;86;21032;-85
2022/09/26 17:31:58;;;;;;;26.52;16.48;;;;;;;13.03;100.00;97926.64;4059501;86;21000;-85
2022/09/26 17:44:49;;;;;;;19.17;12.15;;;;;;;12.97;100.00;97935.12;4098068;85;21075;-84
2022/09/26 17:50:54;;;;;;;17.92;12.05;;;;;;;12.90;100.00;97937.98;4107857;85;21599;-83
2022/09/26 17:56:56;;;;;;;19.75;12.60;;;;;;;12.86;100.00;97929.80;4107866;85;21517;-85
2022/09/26 18:03:02;;;;;;;17.82;12.90;;;;;;;12.71;100.00;97929.05;4090943;86;21021;-84
2022/09/26 18:09:08;;;;;;;17.05;12.70;;;;;;;12.60;100.00;97925.87;4105946;85;21062;-84
2022/09/26 18:15:15;;;;;;;33.30;21.35;;;;;;;12.46;100.00;97926.66;4104987;86;21539;-84
2022/09/26 18:21:18;;;;;;;27.13;19.25;;;;;;;12.42;100.00;97920.41;4089990;87;21526;-84
2022/09/26 18:27:21;;;;;;;18.95;14.13;;;;;;;12.33;100.00;97922.89;4136355;86;21097;-85
2022/09/26 18:39:39;;;;;;;16.50;12.73;;;;;;;12.08;100.00;97934.18;4134598;85;21047;-84
2022/09/26 18:45:41;;;;;;;34.70;25.57;;;;;;;11.98;100.00;97932.94;4196488;83;21031;-85
2022/09/26 18:51:44;;;;;;;33.65;23.73;;;;;;;11.79;100.00;97934.30;4209618;83;21026;-84
2022/09/26 19:04:13;;;;;;;21.93;14.95;;;;;;;11.65;100.00;97931.70;4266031;83;20974;-84
2022/09/26 19:10:18;;;;;;;19.12;14.90;;;;;;;11.52;100.00;97936.13;4210692;82;21038;-84
2022/09/26 19:23:16;;;;;;;27.48;19.48;;;;;;;11.51;100.00;97922.83;4177013;84;20973;-84
2022/09/26 19:29:30;;;;;;;27.85;19.05;;;;;;;11.35;100.00;97927.48;4212075;83;21022;-84
2022/09/26 19:35:40;;;;;;;34.50;21.23;;;;;;;11.15;100.00;97927.83;4196452;83;21067;-84
2022/09/26 19:41:42;;;;;;;24.87;16.30;;;;;;;11.06;100.00;97920.66;4121051;84;21014;-85
2022/09/26 19:47:50;;;;;;;19.98;13.53;;;;;;;10.99;100.00;97927.58;4155478;83;21074;-84
2022/09/26 19:53:51;;;;;;;29.23;17.05;;;;;;;10.89;100.00;97928.42;4156450;83;21056;-84
2022/09/26 19:59:53;;;;;;;29.42;19.77;;;;;;;10.80;100.00;97926.73;4121944;83;21057;-84
2022/09/26 20:05:55;;;;;;;43.38;26.23;;;;;;;10.77;100.00;97935.14;4145382;84;21055;-84
2022/09/26 20:11:56;;;;;;;35.98;22.05;;;;;;;10.70;100.00;97932.47;4154400;84;21051;-84
2022/09/26 20:17:59;;;;;;;33.53;22.58;;;;;;;10.74;100.00;97934.58;4158372;84;21616;-85
2022/09/26 20:24:01;;;;;;;38.95;23.47;;;;;;;10.76;100.00;97934.18;4091043;86;20983;-84
2022/09/26 20:36:32;;;;;;;30.05;20.17;;;;;;;10.63;100.00;97943.44;4147843;83;21007;-84
2022/09/26 20:42:36;;;;;;;29.02;19.48;;;;;;;10.63;100.00;97953.02;4190550;83;21476;-84
2022/09/26 20:48:40;;;;;;;26.80;18.73;;;;;;;10.58;100.00;97945.84;4192316;83;20975;-84
2022/09/26 20:54:42;;;;;;;31.27;18.92;;;;;;;10.53;100.00;97948.41;4202675;83;21735;-84
2022/09/26 21:00:44;;;;;;;24.37;17.90;;;;;;;10.49;100.00;97949.00;4192909;83;21043;-84
2022/09/26 21:06:46;;;;;;;24.30;17.00;;;;;;;10.34;100.00;97940.68;4187830;85;21018;-84
2022/09/26 21:12:51;;;;;;;23.38;16.12;;;;;;;10.38;100.00;97937.33;4195308;83;20983;-81
2022/09/26 21:18:52;;;;;;;22.58;15.80;;;;;;;10.38;100.00;97931.09;4194266;83;21040;-82
2022/09/26 21:24:54;;;;;;;30.82;19.60;;;;;;;10.39;100.00;97932.64;4194854;83;21078;-84
2022/09/26 21:31:04;;;;;;;29.30;19.27;;;;;;;10.36;100.00;97925.23;4200993;83;21070;-84
2022/09/26 21:37:09;;;;;;;28.47;19.85;;;;;;;10.10;100.00;97928.49;4201317;82;21980;-84
2022/09/26 21:43:19;;;;;;;31.68;20.32;;;;;;;10.02;100.00;97916.78;4190007;83;21007;-84
2022/09/26 21:49:20;;;;;;;26.65;18.27;;;;;;;9.97;100.00;97915.03;4201173;83;21041;-84
2022/09/26 21:55:28;;;;;;;28.98;20.77;;;;;;;9.92;100.00;97913.48;4191565;83;20987;-84
2022/09/26 22:01:29;;;;;;;26.80;18.30;;;;;;;9.69;100.00;97902.24;4200594;83;21896;-83
2022/09/26 22:07:32;;;;;;;26.87;17.92;;;;;;;9.66;100.00;97901.67;4192554;83;21602;-84
2022/09/26 22:13:37;;;;;;;36.00;26.02;;;;;;;9.62;100.00;97897.36;4203677;83;21100;-84
2022/09/26 22:19:39;;;;;;;34.95;21.82;;;;;;;9.48;100.00;97884.53;4190959;83;21850;-83
2022/09/26 22:25:40;;;;;;;37.50;25.43;;;;;;;9.27;100.00;97885.95;4194648;83;21614;-84
2022/09/26 22:31:44;;;;;;;31.12;22.73;;;;;;;9.15;100.00;97876.20;4202565;83;21527;-83
2022/09/26 22:37:46;;;;;;;27.35;18.37;;;;;;;9.03;100.00;97869.78;4191928;83;22097;-84
2022/09/26 22:43:54;;;;;;;27.15;18.17;;;;;;;8.92;100.00;97864.12;4149753;84;21004;-83
2022/09/26 22:49:55;;;;;;;32.40;20.88;;;;;;;8.83;100.00;97855.56;4260307;83;21090;-83
2022/09/26 22:55:57;;;;;;;30.52;19.77;;;;;;;8.75;100.00;97845.81;4183064;82;21019;-84
2022/09/26 23:01:58;;;;;;;31.80;19.67;;;;;;;8.63;100.00;97846.97;4174790;83;21046;-83
2022/09/26 23:08:00;;;;;;;24.55;16.97;;;;;;;8.61;100.00;97841.14;4168313;83;22032;-84
2022/09/26 23:14:02;;;;;;;27.07;18.55;;;;;;;8.59;100.00;97838.02;4199165;82;21003;-84
2022/09/26 23:20:06;;;;;;;30.15;19.75;;;;;;;8.47;100.00;97834.29;4161318;83;21612;-84
2022/09/26 23:26:22;;;;;;;31.93;18.32;;;;;;;8.35;100.00;97836.64;4144194;84;21010;-84
2022/09/26 23:32:23;;;;;;;34.50;19.00;;;;;;;8.30;100.00;97826.11;4171185;84;21066;-84
2022/09/26 23:38:26;;;;;;;25.72;17.00;;;;;;;8.22;100.00;97824.51;4188995;83;21991;-83
2022/09/26 23:44:27;;;;;;;29.10;18.00;;;;;;;8.34;100.00;97821.43;4227613;83;21038;-84
2022/09/26 23:50:28;;;;;;;23.47;17.17;;;;;;;8.32;100.00;97827.84;4193088;82;21000;-84
2022/09/26 23:56:30;;;;;;;27.10;17.57;;;;;;;8.16;100.00;97817.88;4203762;83;21044;-84
